Fallon, NV

5:43 PM PDT on July 12, 2014 (GMT -0700)
Carson (KCXP) Elev 4705 ft | 39.19 °N, 119.73 °W | Change Station

Current weather conditions updated 8 minutes ago

Clear
Clear
93 °F
Feels Like 93 °F
N
5
Wind Variable Wind from ENE

Tomorrow is forecast to be Much Warmer than today.

Today
High -- | Low -- °F
--% Chance of Precip.
Yesterday
High -- | Low -- °F
Precip. -- in
5:38 AM 8:22 PM
Full, 100% visible
Pressure 30.12 in
Visibility 10.0 miles
Clouds Clear
Dew Point 32 °F
Humidity 11%
Rainfall 0.00 in
Snow Depth Not available.
UV 3 out of 12
Pollen 4.60 out of 12
Air Quality Not available.
Flu Activity Sporadic
METAR KCXP 130035Z AUTO 06004KT 10SM CLR 34/00 A3012 RMK AO2

More Conditions Fewer Conditions

Pressure 30.12 in
Visibility 10.0 miles
Clouds Clear
Dew Point 32 °F
Humidity 11%
Rainfall 0.00 in
Snow Depth Not available.
UV 3 out of 12
Pollen 4.60 out of 12
Air Quality Not available.
Flu Activity Sporadic
METAR KCXP 130035Z AUTO 06004KT 10SM CLR 34/00 A3012 RMK AO2

More Conditions Fewer Conditions

10-Day Weather Forecast

Almanac

Astronomy

Jul. 12, 2014 Rise Set
Actual Time 5:38 AM PDT 8:22 PM PDT
Civil Twilight 5:06 AM PDT 8:54 PM PDT
Nautical Twilight 4:26 AM PDT 9:34 PM PDT
Astronomical Twilight 3:41 AM PDT 10:19 PM PDT
Moon 8:29 PM PDT (7/12) 6:02 AM PDT (7/12)
Length of Visible Light 15h 47m
Length of Day
14h 44m
Tomorrow will be 1m 12s shorter.
Full, 100% of the Moon is Illuminated
Today
Full
Jul 18
Last Quarter
Jul 26
New
Aug 3
First Quarter
Aug 10
Full

Today's Extremes

State Highs State Lows

Community

WunderPhotos

Upload Photos

1,733,016 photos uploaded!

WunderBlogs® & News

Nearby

Snow Depth

Station Depth Elevation
Lamance Creek 0 in 6000 ft
Buckskin Lower 2 in 6700 ft
Sheldon 1 in 5860 ft
Taylor Canyon 0 in 6200 ft
Jacks Peak 2 in 8420 ft

Earthquake Activity

City Distance Mag. Time & Date
Mammoth Lakes, California 126 miles 2.7 11:25 PM PDT
2014-07-06
Minimum magnitude displayed is 2.5.

Coastal Water Temperatures

Place Temperature
No Stations Reporting

Nearby Weather Stations

Station Location Temp. Heat Index Dew Point Humidity Wind Precip. Elev Updated Type
Ponte Estates, Fallon, NV 96.6 °F 92 °F 41 °F 15% SE  at  2.0 mph 0.00 in / hr 3999 ft 5:43 PM PDT Rapid Fire
Hwy. 50, Fallon, NV 97.0 °F 93 °F 43 °F 16% SW  at  0.0 mph 0.00 in / hr 4002 ft 5:43 PM PDT Rapid Fire
MesoWest FREY RANCH - FALLON , Fallon, NV 95 °F 91 °F 42 °F 16% SW  at  2 mph 0.00 in / hr 3939 ft 3:40 PM PDT MADIS
K7ET, Bench Rd., Fallon, NV 95.4 °F 91 °F 42 °F 16% SW  at  0.0 mph 0.00 in / hr 4100 ft 5:43 PM PDT Normal
MesoWest MASSIE , Fallon, NV 90 °F 87 °F - - North  at  - 0.00 in / hr 3962 ft 4:40 PM PDT MADIS
MesoWest DARWIN , Fernley, NV 95 °F 91 °F - - North  at  - 0.00 in / hr 4083 ft 4:25 PM PDT MADIS
MesoWest PARRAN , Fallon, NV 92 °F 88 °F - - North  at  - 0.00 in / hr 3890 ft 4:30 PM PDT MADIS

Show More Stations Show Fewer Stations